Time;durP1;ratioP1;P1;durP2;ratioP2;P2;SDS_P1;SDS_P2;PMS_P1;PMS_P2;Temp;Humidity;BMP_temperature;BMP_pressure;BME280_temperature;BME280_humidity;BME280_pressure;Samples;Min_cycle;Max_cycle;Signal;HPM_P1;HPM_P2
2022/12/03 00:04:19;;;;;;;14.18;7.03;;;;;;;;;;21001769;28;20044;-59
2022/12/03 00:14:21;;;;;;;7.95;4.68;;;;;;;;;;21001751;28;20135;-59
2022/12/03 00:24:24;;;;;;;11.85;5.47;;;;;;;;;;21000334;28;20044;-58
2022/12/03 00:34:26;;;;;;;11.50;6.38;;;;;;;;;;20981497;28;20451;-58
2022/12/03 00:44:29;;;;;;;12.40;7.00;;;;;;;;;;20997514;28;20049;-59
2022/12/03 00:54:31;;;;;;;14.43;8.20;;;;;;;;;;20996985;28;20052;-60
2022/12/03 01:04:34;;;;;;;10.88;5.30;;;;;;;;;;20996699;28;20147;-58
2022/12/03 01:14:36;;;;;;;8.63;5.43;;;;;;;;;;20997419;28;20400;-59
2022/12/03 01:24:38;;;;;;;8.18;5.28;;;;;;;;;;20995598;28;20052;-59
2022/12/03 01:34:41;;;;;;;8.60;5.20;;;;;;;;;;20994851;28;20079;-57
2022/12/03 01:44:44;;;;;;;8.68;4.97;;;;;;;;;;20994533;28;20090;-60
2022/12/03 01:54:51;;;;;;;8.35;4.65;;;;;;;;;;20994460;28;20048;-59
2022/12/03 02:04:54;;;;;;;9.43;4.65;;;;;;;;;;20995331;28;20480;-58
2022/12/03 02:14:57;;;;;;;7.07;4.45;;;;;;;;;;20994278;28;20048;-59
2022/12/03 02:24:59;;;;;;;6.80;4.57;;;;;;;;;;20992762;28;20056;-58
2022/12/03 02:35:04;;;;;;;8.27;4.75;;;;;;;;;;20992161;28;20060;-59
2022/12/03 02:45:07;;;;;;;8.80;5.22;;;;;;;;;;20992827;28;20084;-58
2022/12/03 02:55:13;;;;;;;10.10;5.82;;;;;;;;;;20992413;28;20542;-59
2022/12/03 03:05:15;;;;;;;10.65;5.20;;;;;;;;;;21001988;28;20408;-58
2022/12/03 03:15:16;;;;;;;10.02;5.80;;;;;;;;;;21005434;28;20064;-59
2022/12/03 03:25:19;;;;;;;13.48;7.60;;;;;;;;;;21005242;28;20048;-57
2022/12/03 03:35:21;;;;;;;14.32;7.03;;;;;;;;;;21004486;28;20060;-59
2022/12/03 03:45:22;;;;;;;19.40;7.78;;;;;;;;;;21003504;28;20503;-62
2022/12/03 03:55:23;;;;;;;10.90;6.30;;;;;;;;;;21003856;28;20086;-61
2022/12/03 04:05:25;;;;;;;13.25;6.35;;;;;;;;;;21002923;28;20052;-63
2022/12/03 04:15:26;;;;;;;10.05;5.60;;;;;;;;;;21001494;28;20404;-60
2022/12/03 04:35:53;;;;;;;8.45;4.53;;;;;;;;;;20999015;28;20048;-59
2022/12/03 04:45:58;;;;;;;9.63;5.38;;;;;;;;;;20998708;28;20087;-60
2022/12/03 04:56:00;;;;;;;8.65;5.13;;;;;;;;;;20998976;28;20048;-63
2022/12/03 05:06:03;;;;;;;9.98;5.97;;;;;;;;;;20997398;28;20048;-60
2022/12/03 05:16:06;;;;;;;9.25;5.28;;;;;;;;;;20995917;28;20113;-59
2022/12/03 05:26:10;;;;;;;8.32;5.13;;;;;;;;;;20995464;28;20052;-61
2022/12/03 05:36:13;;;;;;;12.10;6.50;;;;;;;;;;20995254;28;20147;-60
2022/12/03 05:46:15;;;;;;;10.60;5.63;;;;;;;;;;20994378;28;20041;-58
2022/12/03 05:56:17;;;;;;;10.10;5.60;;;;;;;;;;20994995;28;20078;-65
2022/12/03 06:06:19;;;;;;;8.98;5.43;;;;;;;;;;20995327;28;20079;-59
2022/12/03 06:16:22;;;;;;;7.32;4.90;;;;;;;;;;20994058;28;20185;-58
2022/12/03 06:26:24;;;;;;;9.50;5.57;;;;;;;;;;20993042;28;20051;-60
2022/12/03 06:36:26;;;;;;;10.02;5.00;;;;;;;;;;20998642;28;20059;-60
2022/12/03 06:46:29;;;;;;;10.48;5.43;;;;;;;;;;21008599;28;20079;-59
2022/12/03 06:56:31;;;;;;;8.60;5.00;;;;;;;;;;21008245;28;20049;-58
2022/12/03 07:06:32;;;;;;;7.50;4.90;;;;;;;;;;21006746;28;20079;-59
2022/12/03 07:16:35;;;;;;;8.18;5.10;;;;;;;;;;21006873;28;20048;-59
2022/12/03 07:26:37;;;;;;;8.82;5.40;;;;;;;;;;21005840;28;20568;-59
2022/12/03 07:36:39;;;;;;;10.43;5.38;;;;;;;;;;21003924;28;20063;-59
2022/12/03 07:46:41;;;;;;;10.70;6.15;;;;;;;;;;21002620;28;20080;-59
2022/12/03 07:56:43;;;;;;;19.25;5.95;;;;;;;;;;21003227;28;20135;-59
2022/12/03 08:06:45;;;;;;;10.20;5.30;;;;;;;;;;21001850;28;20048;-59
2022/12/03 08:16:47;;;;;;;9.90;5.82;;;;;;;;;;21002039;28;20053;-61
2022/12/03 08:26:49;;;;;;;12.02;6.10;;;;;;;;;;21000019;28;20052;-61
2022/12/03 08:36:58;;;;;;;9.88;5.75;;;;;;;;;;20999609;28;20052;-61
2022/12/03 08:47:11;;;;;;;13.60;6.10;;;;;;;;;;20998704;28;20137;-61
2022/12/03 08:57:22;;;;;;;13.10;5.88;;;;;;;;;;20997762;28;20049;-60
2022/12/03 09:07:24;;;;;;;12.77;6.90;;;;;;;;;;20996781;28;20055;-58
2022/12/03 09:17:26;;;;;;;19.17;7.85;;;;;;;;;;20996398;28;20057;-59
2022/12/03 09:27:28;;;;;;;17.23;9.23;;;;;;;;;;20995907;28;20091;-59
2022/12/03 09:37:30;;;;;;;20.10;9.90;;;;;;;;;;20995850;28;20135;-59
2022/12/03 09:47:32;;;;;;;15.13;8.35;;;;;;;;;;20995526;28;20505;-59
2022/12/03 09:57:34;;;;;;;18.30;9.90;;;;;;;;;;20994139;28;20052;-58
2022/12/03 10:07:36;;;;;;;16.98;9.80;;;;;;;;;;20994042;28;20052;-58
2022/12/03 10:17:39;;;;;;;31.23;11.80;;;;;;;;;;21010320;28;20490;-60
2022/12/03 10:27:41;;;;;;;16.63;10.05;;;;;;;;;;21009197;28;20072;-60
2022/12/03 10:37:56;;;;;;;23.45;10.48;;;;;;;;;;21007377;28;20080;-59
2022/12/03 10:48:04;;;;;;;20.02;10.85;;;;;;;;;;21007890;28;20488;-61
2022/12/03 10:58:08;;;;;;;19.48;10.57;;;;;;;;;;21008792;28;20545;-60
2022/12/03 11:08:18;;;;;;;20.40;11.30;;;;;;;;;;20988252;28;20408;-59
2022/12/03 11:18:35;;;;;;;22.30;11.53;;;;;;;;;;21005408;28;20041;-59
2022/12/03 11:28:51;;;;;;;22.55;10.70;;;;;;;;;;20972912;28;20055;-63
2022/12/03 11:38:53;;;;;;;18.38;11.18;;;;;;;;;;20921672;28;20049;-59
2022/12/03 11:48:57;;;;;;;18.10;11.35;;;;;;;;;;20919935;28;20079;-63
2022/12/03 11:59:00;;;;;;;16.90;10.65;;;;;;;;;;20919493;28;20488;-59
2022/12/03 12:09:02;;;;;;;18.75;10.52;;;;;;;;;;20919228;28;20492;-60
2022/12/03 12:19:23;;;;;;;16.50;9.23;;;;;;;;;;20918501;28;20064;-59
2022/12/03 12:29:25;;;;;;;12.07;8.40;;;;;;;;;;20917210;28;20064;-58
2022/12/03 12:39:27;;;;;;;7.22;4.53;;;;;;;;;;20916750;28;20394;-62
2022/12/03 12:49:29;;;;;;;10.10;5.80;;;;;;;;;;20990790;28;20055;-61
2022/12/03 12:59:31;;;;;;;8.82;4.85;;;;;;;;;;20996885;28;20045;-62
2022/12/03 13:09:32;;;;;;;9.32;5.45;;;;;;;;;;20996779;28;20058;-61
2022/12/03 13:19:35;;;;;;;11.05;5.47;;;;;;;;;;20997047;28;20177;-61
2022/12/03 13:29:37;;;;;;;6.07;4.07;;;;;;;;;;20996081;28;20139;-61
2022/12/03 13:39:43;;;;;;;5.00;3.25;;;;;;;;;;20995141;28;20041;-60
2022/12/03 13:49:49;;;;;;;24.02;17.63;;;;;;;;;;20994369;28;20096;-60
2022/12/03 13:59:52;;;;;;;8.63;4.60;;;;;;;;;;20996094;28;20173;-61
2022/12/03 14:09:54;;;;;;;7.32;4.97;;;;;;;;;;20994771;28;20048;-63
2022/12/03 14:19:56;;;;;;;9.27;4.60;;;;;;;;;;20995394;28;20056;-61
2022/12/03 14:29:58;;;;;;;8.07;4.43;;;;;;;;;;20993829;28;20065;-61
2022/12/03 14:40:00;;;;;;;9.45;4.55;;;;;;;;;;20994656;28;20076;-63
2022/12/03 14:50:04;;;;;;;7.82;4.93;;;;;;;;;;20993543;28;20103;-63
2022/12/03 15:00:06;;;;;;;9.10;4.80;;;;;;;;;;21003876;28;20453;-62
2022/12/03 15:10:09;;;;;;;17.10;8.55;;;;;;;;;;21008183;28;20040;-62
2022/12/03 15:20:11;;;;;;;17.73;10.95;;;;;;;;;;21007211;28;20135;-62
2022/12/03 15:30:13;;;;;;;17.25;10.77;;;;;;;;;;21007235;28;20653;-61
2022/12/03 15:40:15;;;;;;;17.52;10.38;;;;;;;;;;21005932;28;20119;-63
2022/12/03 15:50:17;;;;;;;20.35;10.70;;;;;;;;;;21005234;28;20063;-61
2022/12/03 16:00:19;;;;;;;15.57;8.73;;;;;;;;;;21004940;28;20393;-63
2022/12/03 16:10:21;;;;;;;16.75;9.00;;;;;;;;;;21004222;28;20052;-61
2022/12/03 16:20:23;;;;;;;14.90;8.77;;;;;;;;;;21002231;28;20051;-61
2022/12/03 16:30:25;;;;;;;13.65;8.60;;;;;;;;;;21001098;28;20097;-62
2022/12/03 16:40:27;;;;;;;14.55;8.63;;;;;;;;;;20983008;28;20127;-63
2022/12/03 16:50:29;;;;;;;31.90;14.18;;;;;;;;;;21000490;28;20045;-61
2022/12/03 17:00:31;;;;;;;13.52;8.75;;;;;;;;;;20999302;28;20479;-61
2022/12/03 17:10:32;;;;;;;24.30;13.98;;;;;;;;;;20997743;28;20052;-60
2022/12/03 17:20:34;;;;;;;15.10;8.57;;;;;;;;;;20995461;28;20049;-59
2022/12/03 17:30:35;;;;;;;17.60;8.80;;;;;;;;;;20995256;28;20140;-60
2022/12/03 17:40:36;;;;;;;19.95;9.02;;;;;;;;;;20997211;28;20056;-60
2022/12/03 17:50:38;;;;;;;17.40;10.35;;;;;;;;;;20996262;28;20075;-61
2022/12/03 18:00:39;;;;;;;19.27;10.93;;;;;;;;;;20995658;28;20040;-59
2022/12/03 18:10:40;;;;;;;19.17;10.65;;;;;;;;;;20995392;28;20085;-62
2022/12/03 18:20:41;;;;;;;21.98;13.60;;;;;;;;;;20995578;28;20052;-61
2022/12/03 18:30:42;;;;;;;17.58;10.38;;;;;;;;;;20998670;28;20475;-64
2022/12/03 18:40:44;;;;;;;18.23;10.10;;;;;;;;;;21011380;28;20082;-61
2022/12/03 18:50:45;;;;;;;15.07;8.27;;;;;;;;;;21009555;28;20052;-60
2022/12/03 19:00:46;;;;;;;19.55;11.45;;;;;;;;;;21010015;28;20044;-61
2022/12/03 19:10:55;;;;;;;15.52;9.48;;;;;;;;;;21008892;28;20098;-60
2022/12/03 19:20:57;;;;;;;17.23;9.93;;;;;;;;;;21007114;28;20162;-61
2022/12/03 19:31:01;;;;;;;20.95;11.90;;;;;;;;;;21005730;28;20057;-61
2022/12/03 19:41:07;;;;;;;19.58;12.00;;;;;;;;;;21005034;28;20540;-60
2022/12/03 19:51:10;;;;;;;22.98;13.07;;;;;;;;;;21004011;28;20088;-60
2022/12/03 20:01:16;;;;;;;25.35;14.68;;;;;;;;;;21003565;28;20048;-61
2022/12/03 20:11:19;;;;;;;27.17;14.95;;;;;;;;;;21003658;28;20044;-61
2022/12/03 20:21:21;;;;;;;32.25;16.25;;;;;;;;;;21003195;28;20044;-60
2022/12/03 20:31:25;;;;;;;25.90;15.25;;;;;;;;;;21001034;28;20045;-60
2022/12/03 20:41:27;;;;;;;25.05;14.68;;;;;;;;;;21000263;28;20056;-61
2022/12/03 20:51:30;;;;;;;27.05;15.88;;;;;;;;;;20999809;28;20095;-60
2022/12/03 21:01:32;;;;;;;27.00;15.68;;;;;;;;;;20997908;28;20051;-61
2022/12/03 21:11:35;;;;;;;22.60;14.50;;;;;;;;;;20997061;28;20496;-61
2022/12/03 21:21:37;;;;;;;29.20;16.27;;;;;;;;;;20996683;28;20070;-59
2022/12/03 21:31:39;;;;;;;24.75;15.70;;;;;;;;;;20996554;28;20389;-59
2022/12/03 21:41:41;;;;;;;29.63;16.67;;;;;;;;;;20996704;28;20040;-61
2022/12/03 21:51:43;;;;;;;27.55;15.88;;;;;;;;;;20977013;28;20056;-60
2022/12/03 22:01:45;;;;;;;29.40;17.00;;;;;;;;;;20995498;28;20045;-62
2022/12/03 22:11:47;;;;;;;32.92;18.15;;;;;;;;;;21009384;28;20082;-60
2022/12/03 22:21:49;;;;;;;29.80;16.88;;;;;;;;;;21011364;28;20049;-58
2022/12/03 22:31:51;;;;;;;33.95;18.77;;;;;;;;;;21010196;28;20056;-61
2022/12/03 22:41:53;;;;;;;34.33;18.88;;;;;;;;;;21010848;28;20048;-60
2022/12/03 22:51:55;;;;;;;29.67;18.02;;;;;;;;;;21010053;28;20362;-60
2022/12/03 23:01:57;;;;;;;29.65;16.48;;;;;;;;;;21010314;28;20404;-59
2022/12/03 23:11:59;;;;;;;26.73;16.05;;;;;;;;;;21007800;28;20048;-60
2022/12/03 23:22:01;;;;;;;27.48;16.10;;;;;;;;;;21006781;28;20131;-63
2022/12/03 23:32:03;;;;;;;26.83;16.52;;;;;;;;;;20987723;28;20485;-59
2022/12/03 23:42:05;;;;;;;28.70;16.15;;;;;;;;;;21005493;28;20446;-61
2022/12/03 23:52:07;;;;;;;32.25;16.85;;;;;;;;;;21004824;28;20053;-59
